Time;durP1;ratioP1;P1;durP2;ratioP2;P2;SDS_P1;SDS_P2;PMS_P1;PMS_P2;Temp;Humidity;BMP_temperature;BMP_pressure;BME280_temperature;BME280_humidity;BME280_pressure;Samples;Min_cycle;Max_cycle;Signal;HPM_P1;HPM_P2
2024/03/24 00:00:21;;;;;;;9.80;3.70;;;;;;;3.90;100.00;100299.53;5026023;28;20047;-71
2024/03/24 00:02:46;;;;;;;7.43;3.67;;;;;;;3.87;100.00;100296.41;5021396;28;20045;-72
2024/03/24 00:05:12;;;;;;;8.80;3.38;;;;;;;3.92;100.00;100299.44;5024414;28;20044;-72
2024/03/24 00:07:37;;;;;;;12.50;4.43;;;;;;;3.77;100.00;100296.34;5021903;28;20033;-72
2024/03/24 00:10:03;;;;;;;7.68;3.25;;;;;;;3.90;100.00;100286.72;5027654;28;20029;-72
2024/03/24 00:12:29;;;;;;;11.50;3.97;;;;;;;3.89;100.00;100290.22;5040349;28;20033;-71
2024/03/24 00:14:54;;;;;;;8.00;3.60;;;;;;;3.88;100.00;100292.91;5029009;28;20562;-73
2024/03/24 00:17:21;;;;;;;6.88;3.50;;;;;;;3.81;100.00;100286.66;5058401;28;20046;-71
2024/03/24 00:19:49;;;;;;;8.60;4.30;;;;;;;3.81;100.00;100284.09;5028852;28;20124;-73
2024/03/24 00:22:15;;;;;;;8.23;4.25;;;;;;;3.90;100.00;100286.72;5026345;28;20480;-72
2024/03/24 00:24:40;;;;;;;8.88;4.60;;;;;;;3.77;100.00;100290.38;5023666;28;20052;-72
2024/03/24 00:27:06;;;;;;;13.13;5.15;;;;;;;3.79;100.00;100284.22;5028709;28;20040;-71
2024/03/24 00:29:31;;;;;;;8.40;4.60;;;;;;;3.85;100.00;100288.84;5024855;28;20496;-72
2024/03/24 00:31:57;;;;;;;10.27;4.43;;;;;;;3.85;100.00;100286.28;5028209;28;20034;-72
2024/03/24 00:34:22;;;;;;;8.98;4.65;;;;;;;3.77;100.00;100280.13;5025216;28;20029;-72
2024/03/24 00:36:48;;;;;;;13.93;4.72;;;;;;;3.85;100.00;100280.34;5025876;28;21143;-71
2024/03/24 00:39:13;;;;;;;13.48;5.00;;;;;;;3.82;100.00;100276.25;5024591;28;20036;-71
2024/03/24 00:41:39;;;;;;;11.65;5.05;;;;;;;3.84;100.00;100271.00;5025033;28;20045;-72
2024/03/24 00:44:04;;;;;;;10.27;5.10;;;;;;;3.80;100.00;100265.31;5025678;28;20112;-71
2024/03/24 00:46:31;;;;;;;9.95;4.72;;;;;;;3.68;100.00;100263.75;5024428;28;20036;-73
2024/03/24 00:48:57;;;;;;;15.90;5.20;;;;;;;3.74;100.00;100260.69;5020809;28;20048;-72
2024/03/24 00:51:22;;;;;;;9.68;4.60;;;;;;;3.77;100.00;100259.59;5023086;28;20025;-71
2024/03/24 00:53:48;;;;;;;9.60;4.68;;;;;;;3.82;100.00;100266.00;5022869;28;20045;-72
2024/03/24 00:56:13;;;;;;;9.75;4.72;;;;;;;3.76;100.00;100261.38;5023669;28;20038;-72
2024/03/24 00:58:39;;;;;;;12.32;5.28;;;;;;;3.67;100.00;100252.69;5022943;28;20042;-71
2024/03/24 01:01:05;;;;;;;16.48;5.63;;;;;;;3.69;100.00;100255.94;5022526;28;20029;-72
2024/03/24 01:03:31;;;;;;;10.48;4.65;;;;;;;3.77;100.00;100264.75;5025023;28;20037;-71
2024/03/24 01:05:56;;;;;;;10.52;4.55;;;;;;;3.73;100.00;100269.34;5023643;28;20520;-71
2024/03/24 01:08:22;;;;;;;13.35;4.43;;;;;;;3.67;100.00;100272.38;5019843;28;20059;-72
2024/03/24 01:10:47;;;;;;;11.57;4.45;;;;;;;3.70;100.00;100262.69;5023053;28;20056;-71
2024/03/24 01:13:13;;;;;;;9.48;4.70;;;;;;;3.63;100.00;100263.31;5006657;28;20037;-72
2024/03/24 01:15:46;;;;;;;8.65;4.40;;;;;;;3.73;100.00;100261.63;5023172;28;20483;-72
2024/03/24 01:18:11;;;;;;;;;;;;;;;3.69;100.00;100261.06;5055647;28;20091;-71
2024/03/24 01:20:38;;;;;;;16.05;4.75;;;;;;;3.72;100.00;100246.38;5029338;28;19943;-71
2024/03/24 01:23:03;;;;;;;13.27;4.82;;;;;;;3.77;100.00;100236.53;5023803;28;20554;-71
2024/03/24 01:25:30;;;;;;;10.68;4.95;;;;;;;3.79;100.00;100243.19;5012001;28;20034;-72
2024/03/24 01:27:56;;;;;;;12.65;5.30;;;;;;;3.77;100.00;100227.09;5024992;28;20055;-71
2024/03/24 01:30:21;;;;;;;10.07;4.97;;;;;;;3.83;100.00;100228.34;5026289;28;20037;-72
2024/03/24 01:32:49;;;;;;;15.10;5.55;;;;;;;3.76;100.00;100216.97;5025173;28;20052;-71
2024/03/24 01:35:15;;;;;;;9.20;5.28;;;;;;;3.85;100.00;100218.78;5026466;28;20653;-72
2024/03/24 01:37:40;;;;;;;11.98;5.10;;;;;;;3.85;100.00;100213.66;5024388;28;20408;-71
2024/03/24 01:40:06;;;;;;;10.82;4.90;;;;;;;3.94;100.00;100214.63;5022123;28;20037;-71
2024/03/24 01:42:32;;;;;;;10.63;4.90;;;;;;;3.94;100.00;100204.34;5019825;28;20033;-71
2024/03/24 01:44:58;;;;;;;15.05;5.10;;;;;;;3.95;100.00;100204.22;5029448;28;20026;-72
2024/03/24 01:47:23;;;;;;;12.50;5.78;;;;;;;3.95;100.00;100209.38;5026125;28;20034;-71
2024/03/24 01:49:48;;;;;;;9.50;4.90;;;;;;;4.04;100.00;100200.91;5022751;28;20034;-71
2024/03/24 01:52:14;;;;;;;12.30;5.40;;;;;;;3.97;100.00;100183.59;5026629;28;20038;-72
2024/03/24 01:54:40;;;;;;;10.80;5.43;;;;;;;4.01;100.00;100188.34;5023606;28;20495;-72
2024/03/24 01:57:05;;;;;;;11.85;4.90;;;;;;;4.05;100.00;100176.88;5026924;28;20060;-71
2024/03/24 01:59:32;;;;;;;12.88;5.68;;;;;;;4.12;100.00;100189.19;5029114;28;20036;-71
2024/03/24 02:01:57;;;;;;;15.40;5.05;;;;;;;4.00;100.00;100173.88;5028208;28;20032;-72
2024/03/24 02:04:23;;;;;;;16.05;5.57;;;;;;;4.01;100.00;100172.97;5022471;28;20029;-71
2024/03/24 02:06:49;;;;;;;12.68;5.65;;;;;;;4.06;100.00;100173.38;5027458;28;20041;-72
2024/03/24 02:09:14;;;;;;;13.15;5.72;;;;;;;4.09;100.00;100175.69;5025621;28;20029;-72
2024/03/24 02:11:39;;;;;;;15.02;5.30;;;;;;;4.07;100.00;100175.00;5027723;28;20044;-71
2024/03/24 02:14:05;;;;;;;12.57;4.85;;;;;;;4.12;100.00;100168.66;5026562;28;20033;-72
2024/03/24 02:16:33;;;;;;;14.57;5.25;;;;;;;4.04;100.00;100164.19;5028206;28;20030;-72
2024/03/24 02:18:59;;;;;;;13.73;4.50;;;;;;;4.16;100.00;100168.25;5031912;28;20542;-72
2024/03/24 02:21:24;;;;;;;16.98;5.20;;;;;;;4.23;100.00;100164.25;5041775;28;20033;-72
2024/03/24 02:23:50;;;;;;;11.27;5.10;;;;;;;4.16;100.00;100164.91;5025828;28;20037;-72
2024/03/24 02:26:16;;;;;;;15.90;7.25;;;;;;;4.19;100.00;100154.38;5025848;28;20519;-73
2024/03/24 02:28:42;;;;;;;13.43;5.05;;;;;;;4.18;100.00;100152.75;5022337;28;20638;-72
2024/03/24 02:31:09;;;;;;;19.55;6.07;;;;;;;4.20;100.00;100154.25;5025039;28;20029;-73
2024/03/24 02:33:35;;;;;;;10.88;4.55;;;;;;;4.09;100.00;100150.03;5025616;28;20171;-72
2024/03/24 02:36:00;;;;;;;10.43;5.57;;;;;;;4.06;100.00;100149.47;5027294;28;20693;-73
2024/03/24 02:38:26;;;;;;;10.00;5.15;;;;;;;4.12;100.00;100148.94;5058030;28;20049;-73
2024/03/24 02:40:52;;;;;;;15.88;5.70;;;;;;;4.06;100.00;100146.91;5025089;28;20021;-73
2024/03/24 02:43:18;;;;;;;10.68;5.72;;;;;;;3.96;100.00;100141.75;5025927;28;20099;-73
2024/03/24 02:45:43;;;;;;;13.40;5.57;;;;;;;4.03;100.00;100137.72;5026539;28;20084;-73
2024/03/24 02:48:09;;;;;;;14.25;5.57;;;;;;;4.02;100.00;100133.50;5024008;28;20042;-73
2024/03/24 02:50:35;;;;;;;12.93;5.82;;;;;;;3.97;100.00;100127.16;5026347;28;20017;-72
2024/03/24 02:53:01;;;;;;;11.27;5.90;;;;;;;3.92;100.00;100116.44;5027290;28;20038;-73
2024/03/24 02:55:27;;;;;;;10.07;5.25;;;;;;;3.85;100.00;100116.97;5023625;28;20103;-73
2024/03/24 02:57:52;;;;;;;14.60;6.88;;;;;;;3.83;100.00;100110.38;5030188;28;20045;-73
2024/03/24 03:00:18;;;;;;;11.18;5.38;;;;;;;3.88;100.00;100097.94;5009468;28;20021;-72
2024/03/24 03:02:44;;;;;;;12.77;5.78;;;;;;;3.85;100.00;100108.47;5023443;28;20469;-73
2024/03/24 03:05:10;;;;;;;12.80;5.20;;;;;;;3.88;100.00;100108.19;5023927;28;20033;-73
2024/03/24 03:07:35;;;;;;;15.65;5.32;;;;;;;3.85;100.00;100100.78;5023622;28;20089;-73
2024/03/24 03:10:04;;;;;;;8.35;4.60;;;;;;;3.81;100.00;100096.88;5024726;28;20026;-73
2024/03/24 03:12:29;;;;;;;9.20;4.35;;;;;;;3.74;100.00;100094.00;5026195;28;20029;-75
2024/03/24 03:14:55;;;;;;;11.50;4.68;;;;;;;3.75;100.00;100089.66;5019557;28;20033;-73
2024/03/24 03:17:20;;;;;;;7.30;4.90;;;;;;;3.76;100.00;100083.59;5026740;28;20049;-73
2024/03/24 03:19:46;;;;;;;13.70;4.90;;;;;;;3.77;100.00;100085.22;5020613;28;20026;-71
2024/03/24 03:22:11;;;;;;;10.93;4.70;;;;;;;3.84;100.00;100084.59;5060493;28;20087;-72
2024/03/24 03:24:37;;;;;;;10.75;4.85;;;;;;;3.80;100.00;100080.63;5026827;28;20045;-73
2024/03/24 03:27:02;;;;;;;8.70;4.57;;;;;;;3.74;100.00;100085.50;5030975;28;20045;-73
2024/03/24 03:29:28;;;;;;;11.32;4.75;;;;;;;3.73;100.00;100086.41;5029977;28;20030;-73
2024/03/24 03:31:53;;;;;;;8.10;5.43;;;;;;;3.70;100.00;100085.72;5029813;28;20389;-73
2024/03/24 03:34:19;;;;;;;12.63;5.72;;;;;;;3.70;100.00;100088.28;5028251;28;20041;-73
2024/03/24 03:36:44;;;;;;;12.73;5.07;;;;;;;3.82;100.00;100081.31;5029631;28;20061;-73
2024/03/24 03:39:10;;;;;;;12.10;5.13;;;;;;;3.74;100.00;100082.94;5029571;28;20037;-73
2024/03/24 03:41:36;;;;;;;11.63;5.25;;;;;;;3.79;100.00;100070.53;5027864;28;20029;-73
2024/03/24 03:44:01;;;;;;;11.90;4.80;;;;;;;3.83;100.00;100080.38;5026130;28;20038;-72
2024/03/24 03:46:27;;;;;;;10.60;5.00;;;;;;;3.81;100.00;100073.78;5026896;28;20029;-73
2024/03/24 03:48:53;;;;;;;12.30;5.47;;;;;;;3.84;100.00;100065.81;5029087;28;20025;-74
2024/03/24 03:51:27;;;;;;;10.40;5.60;;;;;;;3.88;100.00;100057.72;5033270;28;20555;-73
2024/03/24 03:53:55;;;;;;;13.32;5.70;;;;;;;3.91;100.00;100054.09;5011964;28;20172;-73
2024/03/24 03:56:20;;;;;;;17.52;6.32;;;;;;;3.89;100.00;100061.91;5028901;28;20037;-73
2024/03/24 03:58:46;;;;;;;13.40;5.30;;;;;;;3.92;100.00;100057.44;5029277;28;20030;-73
2024/03/24 04:01:11;;;;;;;19.17;5.80;;;;;;;3.84;100.00;100065.81;5044595;28;20038;-72
2024/03/24 04:03:37;;;;;;;16.80;6.30;;;;;;;3.97;100.00;100063.00;5030871;28;20037;-73
2024/03/24 04:06:03;;;;;;;18.25;6.10;;;;;;;4.02;100.00;100048.84;5027593;28;20030;-73
2024/03/24 04:08:29;;;;;;;12.90;5.82;;;;;;;3.97;100.00;100061.25;5029228;28;20072;-73
2024/03/24 04:10:54;;;;;;;13.70;6.10;;;;;;;4.01;100.00;100046.41;5026635;28;20064;-73
2024/03/24 04:13:20;;;;;;;14.93;5.43;;;;;;;4.08;100.00;100056.00;5026185;28;20034;-73
2024/03/24 04:15:45;;;;;;;15.63;5.13;;;;;;;4.04;100.00;100054.66;5024695;28;20037;-73
2024/03/24 04:18:10;;;;;;;13.80;5.85;;;;;;;4.01;100.00;100057.50;5025905;28;20049;-74
2024/03/24 04:20:37;;;;;;;16.83;5.75;;;;;;;4.01;100.00;100044.69;5026426;28;20037;-73
2024/03/24 04:23:05;;;;;;;17.23;6.15;;;;;;;4.02;100.00;100053.19;5055716;28;20064;-73
2024/03/24 04:25:31;;;;;;;19.40;6.88;;;;;;;4.07;100.00;100051.03;5024469;28;20124;-73
2024/03/24 04:27:57;;;;;;;13.35;5.25;;;;;;;4.08;100.00;100057.78;5027926;28;20121;-73
2024/03/24 04:30:22;;;;;;;16.15;4.90;;;;;;;4.05;100.00;100052.91;5027870;28;20037;-76
2024/03/24 04:32:47;;;;;;;17.15;5.13;;;;;;;3.99;100.00;100053.44;5027702;28;20033;-74
2024/03/24 04:35:13;;;;;;;14.48;5.15;;;;;;;3.93;100.00;100053.97;5026625;28;20022;-74
2024/03/24 04:37:39;;;;;;;13.02;4.63;;;;;;;3.95;100.00;100042.63;5025923;28;20052;-74
2024/03/24 04:40:08;;;;;;;9.63;4.60;;;;;;;3.97;100.00;100048.41;5028987;28;20018;-73
2024/03/24 04:42:34;;;;;;;15.52;4.28;;;;;;;3.95;100.00;100046.94;5025749;28;20045;-73
2024/03/24 04:45:03;;;;;;;10.32;3.90;;;;;;;3.92;100.00;100034.38;5030576;28;20041;-74
2024/03/24 04:47:29;;;;;;;9.13;3.90;;;;;;;4.00;100.00;100042.25;5025374;28;20022;-74
2024/03/24 04:49:55;;;;;;;9.57;3.92;;;;;;;3.96;100.00;100043.44;5024900;28;20634;-74
2024/03/24 04:52:22;;;;;;;13.15;4.60;;;;;;;3.84;100.00;100041.00;5053914;28;20034;-74
2024/03/24 04:54:47;;;;;;;11.35;4.85;;;;;;;3.93;100.00;100036.81;5024926;28;20087;-74
2024/03/24 04:57:14;;;;;;;13.13;4.45;;;;;;;3.91;100.00;100041.25;5029442;28;20029;-72
2024/03/24 04:59:39;;;;;;;10.50;4.43;;;;;;;3.93;100.00;100023.19;5023868;28;20041;-73
2024/03/24 05:02:05;;;;;;;11.30;5.45;;;;;;;3.94;100.00;100038.44;5029392;28;20033;-73
2024/03/24 05:04:30;;;;;;;13.52;4.93;;;;;;;3.94;100.00;100035.88;5027081;28;20034;-73
2024/03/24 05:06:59;;;;;;;14.35;6.40;;;;;;;4.05;100.00;100032.38;5026625;28;20048;-73
2024/03/24 05:09:25;;;;;;;12.02;4.85;;;;;;;4.04;100.00;100046.97;5025595;28;20045;-73
2024/03/24 05:11:50;;;;;;;18.23;5.05;;;;;;;4.05;100.00;100050.31;5046530;28;20087;-73
2024/03/24 05:14:16;;;;;;;10.65;4.65;;;;;;;4.04;100.00;100049.53;5030896;28;20026;-73
2024/03/24 05:16:41;;;;;;;19.48;5.38;;;;;;;4.01;100.00;100042.13;5030737;28;20025;-73
2024/03/24 05:19:07;;;;;;;15.38;5.07;;;;;;;4.01;100.00;100034.41;5025518;28;20045;-73
2024/03/24 05:21:32;;;;;;;14.80;5.75;;;;;;;4.07;100.00;100040.78;5055815;28;20473;-73
2024/03/24 05:23:58;;;;;;;18.25;5.93;;;;;;;4.12;100.00;100048.88;5026494;28;20037;-73
2024/03/24 05:26:24;;;;;;;16.48;5.28;;;;;;;4.17;100.00;100040.78;5028479;28;20029;-73
2024/03/24 05:28:50;;;;;;;19.00;5.15;;;;;;;4.08;100.00;100032.13;5024977;28;20037;-73
2024/03/24 05:31:15;;;;;;;13.02;4.97;;;;;;;4.10;100.00;100038.72;5025083;28;20037;-73
2024/03/24 05:33:41;;;;;;;18.48;5.63;;;;;;;4.21;100.00;100037.81;5052268;28;20033;-73
2024/03/24 05:36:08;;;;;;;16.42;5.63;;;;;;;4.28;100.00;100044.03;5023799;28;23939;-74
2024/03/24 05:38:34;;;;;;;19.42;5.38;;;;;;;4.26;100.00;100040.00;5039057;28;20033;-73
2024/03/24 05:41:04;;;;;;;22.88;6.40;;;;;;;4.27;100.00;100041.59;5025217;28;20022;-73
2024/03/24 05:43:30;;;;;;;21.13;5.70;;;;;;;4.25;100.00;100041.72;5020995;28;20088;-73
2024/03/24 05:45:56;;;;;;;24.67;7.07;;;;;;;4.28;100.00;100043.22;5025913;28;20033;-73
2024/03/24 05:48:23;;;;;;;16.05;5.72;;;;;;;4.22;100.00;100043.75;5055213;28;20502;-73
2024/03/24 05:51:02;;;;;;;25.73;6.18;;;;;;;4.33;100.00;100032.56;5032855;28;20175;-73
2024/03/24 05:53:28;;;;;;;24.40;6.15;;;;;;;4.32;100.00;100029.19;5029678;28;20487;-72
2024/03/24 05:55:53;;;;;;;22.98;6.20;;;;;;;4.38;100.00;100033.78;5008600;28;20028;-74
2024/03/24 05:58:20;;;;;;;22.17;6.05;;;;;;;4.41;100.00;100033.50;5006875;28;20063;-73
2024/03/24 06:00:48;;;;;;;16.42;5.57;;;;;;;4.48;100.00;100032.03;5031401;28;20103;-73
2024/03/24 06:03:16;;;;;;;21.45;5.55;;;;;;;4.48;100.00;100024.31;5043788;28;20152;-72
2024/03/24 06:05:42;;;;;;;18.38;5.43;;;;;;;4.53;100.00;100034.19;5025322;28;20443;-72
2024/03/24 06:08:09;;;;;;;20.70;5.18;;;;;;;4.54;100.00;100034.97;5020327;28;20057;-73
2024/03/24 06:10:35;;;;;;;18.63;6.22;;;;;;;4.53;100.00;100030.81;5025974;28;20029;-73
2024/03/24 06:13:01;;;;;;;19.00;6.25;;;;;;;4.53;100.00;100053.91;5021401;28;20038;-73
2024/03/24 06:15:26;;;;;;;18.33;5.32;;;;;;;4.54;100.00;100040.94;5042071;28;20056;-73
2024/03/24 06:17:52;;;;;;;11.90;3.90;;;;;;;4.64;100.00;100040.94;5025824;28;20052;-74
2024/03/24 06:20:18;;;;;;;17.67;4.63;;;;;;;4.52;100.00;100050.56;5026168;28;20033;-73
2024/03/24 06:22:43;;;;;;;17.45;4.80;;;;;;;4.59;100.00;100043.91;5026211;28;20041;-73
2024/03/24 06:25:09;;;;;;;14.18;5.43;;;;;;;4.70;100.00;100047.28;5025764;28;20103;-73
2024/03/24 06:27:35;;;;;;;19.35;5.97;;;;;;;4.80;100.00;100056.63;5024311;28;20045;-73
2024/03/24 06:30:01;;;;;;;14.85;4.88;;;;;;;4.74;100.00;100054.56;5025952;28;20021;-72
2024/03/24 06:32:26;;;;;;;21.05;4.13;;;;;;;4.77;100.00;100056.09;5023245;28;20041;-73
2024/03/24 06:34:52;;;;;;;17.75;3.90;;;;;;;4.79;100.00;100055.00;5023087;28;20034;-72
2024/03/24 06:37:17;;;;;;;21.55;4.65;;;;;;;4.74;100.00;100067.41;5026040;28;20080;-74
2024/03/24 06:39:43;;;;;;;16.90;3.30;;;;;;;4.84;100.00;100057.97;5021799;28;20045;-73
2024/03/24 06:42:08;;;;;;;13.02;3.90;;;;;;;4.82;100.00;100061.59;5027179;28;20486;-72
2024/03/24 06:44:40;;;;;;;15.18;3.95;;;;;;;4.77;100.00;100061.22;5025244;28;20412;-72
2024/03/24 06:47:07;;;;;;;14.07;3.72;;;;;;;4.78;100.00;100063.63;5027439;28;20041;-73
2024/03/24 06:49:33;;;;;;;15.90;4.60;;;;;;;4.75;100.00;100066.50;5023941;28;20038;-73
2024/03/24 06:51:58;;;;;;;27.75;6.80;;;;;;;4.77;100.00;100062.03;5053070;28;20033;-73
2024/03/24 06:54:25;;;;;;;24.73;8.77;;;;;;;4.72;100.00;100066.75;5024672;28;20032;-72
2024/03/24 06:56:50;;;;;;;28.02;9.35;;;;;;;4.75;100.00;100074.19;5025190;28;20480;-72
2024/03/24 06:59:15;;;;;;;50.30;17.30;;;;;;;4.85;100.00;100063.91;5025425;28;20036;-73
2024/03/24 07:01:41;;;;;;;83.13;30.10;;;;;;;4.91;100.00;100057.41;5029818;28;20037;-72
2024/03/24 07:04:06;;;;;;;56.60;18.85;;;;;;;4.91;100.00;100070.25;5023452;28;20064;-72
2024/03/24 07:06:32;;;;;;;53.25;20.50;;;;;;;4.94;100.00;100065.66;5024067;28;20033;-72
2024/03/24 07:08:58;;;;;;;72.93;27.05;;;;;;;4.97;100.00;100069.69;5026151;28;20044;-74
2024/03/24 07:11:24;;;;;;;33.10;12.52;;;;;;;4.91;100.00;100090.81;5023373;28;20040;-72
2024/03/24 07:13:49;;;;;;;25.50;12.35;;;;;;;4.92;100.00;100079.59;5022910;28;20052;-72
2024/03/24 07:16:15;;;;;;;17.65;7.63;;;;;;;4.93;100.00;100089.72;5025028;28;20063;-73
2024/03/24 07:18:40;;;;;;;11.45;4.18;;;;;;;4.92;100.00;100089.88;5026146;28;20029;-72
2024/03/24 07:21:07;;;;;;;14.65;5.13;;;;;;;5.10;100.00;100098.50;5053139;28;20047;-72
2024/03/24 07:23:32;;;;;;;6.22;2.22;;;;;;;5.10;100.00;100095.91;5023835;28;20026;-72
2024/03/24 07:25:58;;;;;;;6.80;2.40;;;;;;;5.07;100.00;100112.44;5023398;28;20381;-72
2024/03/24 07:28:24;;;;;;;11.02;3.63;;;;;;;5.00;100.00;100113.13;5024775;28;20053;-72
2024/03/24 07:30:49;;;;;;;12.00;3.45;;;;;;;5.00;100.00;100105.41;5019063;28;20080;-72
2024/03/24 07:33:14;;;;;;;8.90;2.28;;;;;;;4.91;100.00;100101.91;5025585;28;20404;-72
2024/03/24 07:35:41;;;;;;;6.32;2.80;;;;;;;4.88;100.00;100108.13;5025970;28;20404;-73
2024/03/24 07:38:06;;;;;;;14.88;5.03;;;;;;;4.76;100.00;100098.13;5024520;28;20530;-72
2024/03/24 07:40:32;;;;;;;10.27;5.03;;;;;;;4.78;100.00;100101.34;5026328;28;20025;-73
2024/03/24 07:42:58;;;;;;;10.00;4.28;;;;;;;4.83;100.00;100110.28;5022413;28;20450;-72
2024/03/24 07:45:23;;;;;;;7.63;3.42;;;;;;;4.86;100.00;100107.44;5025174;28;20040;-72
2024/03/24 07:47:49;;;;;;;8.82;3.78;;;;;;;4.94;100.00;100116.25;5024795;28;20033;-72
2024/03/24 07:50:16;;;;;;;15.55;4.47;;;;;;;4.97;100.00;100119.34;5022270;28;20087;-72
2024/03/24 07:52:41;;;;;;;17.85;4.85;;;;;;;5.02;100.00;100106.88;5024298;28;20072;-72
2024/03/24 07:55:07;;;;;;;11.25;4.07;;;;;;;5.22;100.00;100114.59;5025348;28;20693;-73
2024/03/24 07:57:33;;;;;;;13.40;4.55;;;;;;;5.69;100.00;100111.22;5024758;28;20396;-73
2024/03/24 07:59:58;;;;;;;13.43;4.75;;;;;;;5.59;100.00;100112.03;5024368;28;20834;-72
2024/03/24 08:02:24;;;;;;;12.25;5.57;;;;;;;5.57;100.00;100111.38;5021925;28;20072;-73
2024/03/24 08:04:49;;;;;;;12.63;3.85;;;;;;;5.49;100.00;100116.41;5023246;28;20049;-73
2024/03/24 08:07:15;;;;;;;14.88;5.35;;;;;;;5.45;100.00;100109.94;5026001;28;20025;-72
2024/03/24 08:09:40;;;;;;;19.25;4.57;;;;;;;5.47;100.00;100131.97;5026093;28;20539;-72
2024/03/24 08:12:06;;;;;;;12.50;5.90;;;;;;;5.52;100.00;100130.75;5023125;28;20045;-73
2024/03/24 08:14:31;;;;;;;13.02;5.00;;;;;;;5.61;100.00;100124.78;5029124;28;20033;-74
2024/03/24 08:16:57;;;;;;;17.63;7.45;;;;;;;5.65;100.00;100124.38;5029590;28;20045;-73
2024/03/24 08:19:24;;;;;;;13.20;4.43;;;;;;;5.75;100.00;100124.34;5029184;28;20520;-72
2024/03/24 08:21:50;;;;;;;12.57;3.40;;;;;;;5.78;100.00;100133.53;5024241;28;20507;-73
2024/03/24 08:24:17;;;;;;;15.73;4.10;;;;;;;5.80;100.00;100127.31;5029960;28;20566;-73
2024/03/24 08:26:42;;;;;;;14.18;4.03;;;;;;;5.76;100.00;100123.38;5028018;28;20094;-73
2024/03/24 08:29:08;;;;;;;14.73;5.10;;;;;;;5.68;100.00;100120.69;5029688;28;20046;-73
2024/03/24 08:31:33;;;;;;;37.55;15.50;;;;;;;5.80;100.00;100121.31;5024805;28;20030;-72
2024/03/24 08:33:59;;;;;;;37.33;16.42;;;;;;;6.06;100.00;100131.81;5028436;28;20030;-72
2024/03/24 08:36:24;;;;;;;29.67;12.35;;;;;;;6.10;100.00;100122.03;5030463;28;20030;-72
2024/03/24 08:38:50;;;;;;;17.45;6.50;;;;;;;6.71;100.00;100130.91;5028231;28;20042;-72
2024/03/24 08:41:15;;;;;;;16.75;4.68;;;;;;;6.64;100.00;100125.50;5027036;28;20037;-72
2024/03/24 08:43:40;;;;;;;12.23;5.10;;;;;;;6.74;100.00;100128.84;5027358;28;20029;-72
2024/03/24 08:46:06;;;;;;;13.43;4.90;;;;;;;7.48;100.00;100116.50;5028150;28;20072;-72
2024/03/24 08:48:31;;;;;;;9.15;4.60;;;;;;;7.49;100.00;100118.09;5024219;28;20057;-73
2024/03/24 08:50:57;;;;;;;12.98;4.93;;;;;;;7.51;100.00;100116.19;5025362;28;20041;-73
2024/03/24 08:53:22;;;;;;;12.07;4.63;;;;;;;8.18;99.63;100118.91;5027765;28;20092;-74
2024/03/24 08:55:48;;;;;;;16.90;4.18;;;;;;;8.72;95.59;100121.16;5027383;28;20541;-74
2024/03/24 08:58:13;;;;;;;13.68;4.90;;;;;;;8.71;94.01;100118.72;5025920;28;20025;-72
2024/03/24 09:00:40;;;;;;;11.40;4.13;;;;;;;8.37;95.08;100111.84;5028699;28;20384;-73
2024/03/24 09:03:05;;;;;;;20.00;4.82;;;;;;;8.48;96.15;100119.34;5025315;28;20045;-73
2024/03/24 09:05:32;;;;;;;8.25;4.03;;;;;;;8.13;93.32;100110.00;5053261;28;20124;-73
2024/03/24 09:07:57;;;;;;;12.43;4.30;;;;;;;8.37;93.00;100112.66;5022698;28;20052;-73
2024/03/24 09:10:22;;;;;;;12.55;4.50;;;;;;;8.57;91.71;100108.06;5028350;28;20034;-74
2024/03/24 09:12:48;;;;;;;11.48;4.32;;;;;;;8.48;94.14;100119.34;5024732;28;20037;-72
2024/03/24 09:15:14;;;;;;;10.35;3.38;;;;;;;9.06;92.75;100109.84;5029445;28;20037;-73
2024/03/24 09:17:39;;;;;;;12.40;3.95;;;;;;;8.53;90.99;100116.25;5024846;28;20061;-73
2024/03/24 09:20:05;;;;;;;12.02;4.43;;;;;;;8.19;91.49;100112.78;5026925;28;20044;-73
2024/03/24 09:22:31;;;;;;;11.13;3.85;;;;;;;7.97;93.70;100118.53;5044627;28;20043;-73
2024/03/24 09:24:56;;;;;;;19.60;4.18;;;;;;;8.32;94.73;100130.41;5027653;28;20076;-73
2024/03/24 09:27:22;;;;;;;17.63;4.63;;;;;;;8.19;92.95;100127.44;5030111;28;20088;-74
2024/03/24 09:29:47;;;;;;;13.10;3.55;;;;;;;8.62;89.31;100117.91;5024485;28;20048;-73
2024/03/24 09:32:12;;;;;;;14.77;3.70;;;;;;;9.05;86.55;100115.97;5028679;28;20026;-73
2024/03/24 09:34:38;;;;;;;15.15;3.78;;;;;;;9.09;83.20;100116.47;5028463;28;20029;-73
2024/03/24 09:37:04;;;;;;;17.27;4.90;;;;;;;8.84;82.06;100116.47;5029129;28;20029;-73
2024/03/24 09:39:29;;;;;;;13.82;4.53;;;;;;;8.86;83.87;100117.13;5025503;28;20037;-73
2024/03/24 09:41:58;;;;;;;12.90;3.65;;;;;;;9.13;83.03;100115.16;5056689;28;20033;-73
2024/03/24 09:44:26;;;;;;;13.13;4.90;;;;;;;9.08;82.53;100115.66;5020348;28;20026;-73
2024/03/24 09:46:51;;;;;;;17.38;3.65;;;;;;;9.35;80.99;100111.09;5026405;28;20083;-73
2024/03/24 09:49:18;;;;;;;14.73;4.40;;;;;;;9.46;80.69;100128.88;5045562;28;20041;-74
2024/03/24 09:51:45;;;;;;;15.32;4.93;;;;;;;9.55;83.47;100091.66;5032473;28;20024;-73
2024/03/24 09:54:12;;;;;;;18.80;4.35;;;;;;;9.52;79.80;100106.69;5025600;28;20148;-76
2024/03/24 09:56:38;;;;;;;15.30;3.92;;;;;;;9.87;80.91;100109.81;5026301;28;20100;-74
2024/03/24 09:59:05;;;;;;;14.82;3.72;;;;;;;9.57;79.29;100108.78;5026331;28;20132;-74
2024/03/24 10:01:32;;;;;;;11.68;4.40;;;;;;;9.24;81.36;100114.03;5024941;28;20041;-74
2024/03/24 10:03:57;;;;;;;10.18;3.47;;;;;;;9.15;81.98;100116.63;5021458;28;20039;-74
2024/03/24 10:06:25;;;;;;;11.70;3.53;;;;;;;9.15;85.25;100121.81;5002218;28;20037;-74
2024/03/24 10:08:51;;;;;;;12.68;3.38;;;;;;;9.36;87.11;100125.63;5021893;28;20500;-73
2024/03/24 10:11:28;;;;;;;15.63;4.70;;;;;;;9.83;86.25;100109.38;5026124;28;20060;-73
2024/03/24 10:13:59;;;;;;;15.88;4.60;;;;;;;9.72;82.24;100118.28;5022885;28;20449;-74
2024/03/24 10:16:25;;;;;;;22.48;8.05;;;;;;;10.13;83.76;100112.13;5022955;28;20025;-73
2024/03/24 10:18:51;;;;;;;15.95;6.63;;;;;;;10.32;82.43;100103.16;5029258;28;20044;-74
2024/03/24 10:21:17;;;;;;;17.08;5.07;;;;;;;10.24;82.79;100111.75;5025614;28;20029;-74
2024/03/24 10:23:43;;;;;;;18.50;5.20;;;;;;;10.02;83.40;100104.72;5024387;28;20041;-73
2024/03/24 10:26:09;;;;;;;14.25;3.75;;;;;;;10.04;80.61;100106.19;5025877;28;20065;-73
2024/03/24 10:28:35;;;;;;;14.57;3.88;;;;;;;9.80;78.56;100088.97;5021304;28;20104;-73
2024/03/24 10:31:07;;;;;;;12.48;4.35;;;;;;;9.63;78.22;100090.81;5028638;28;20031;-74
2024/03/24 10:33:39;;;;;;;16.85;4.82;;;;;;;9.74;80.58;100092.25;5020760;28;20128;-73
2024/03/24 10:36:08;;;;;;;10.50;2.92;;;;;;;9.47;74.42;100098.63;5026565;28;20033;-73
2024/03/24 10:38:36;;;;;;;15.85;3.10;;;;;;;9.48;73.12;100101.03;5056988;28;20049;-73
2024/03/24 10:41:03;;;;;;;11.70;2.75;;;;;;;9.39;75.24;100102.03;5026753;28;20036;-73
2024/03/24 10:43:29;;;;;;;16.05;3.78;;;;;;;9.37;75.62;100103.19;5026308;28;20030;-73
2024/03/24 10:45:55;;;;;;;12.98;3.38;;;;;;;9.17;79.09;100103.50;5021712;28;20033;-73
2024/03/24 10:48:32;;;;;;;11.63;4.72;;;;;;;8.83;82.59;100109.66;5026097;28;20064;-73
2024/03/24 10:51:04;;;;;;;17.65;3.50;;;;;;;8.74;83.22;100103.72;5030086;28;20045;-73
2024/03/24 10:53:33;;;;;;;13.63;3.15;;;;;;;8.74;84.11;100113.25;5025733;28;20075;-74
2024/03/24 10:56:02;;;;;;;13.77;3.22;;;;;;;8.82;84.09;100113.25;5026508;28;20037;-73
2024/03/24 10:58:28;;;;;;;14.52;5.05;;;;;;;9.06;85.41;100102.09;5025363;28;20045;-73
2024/03/24 11:00:55;;;;;;;20.58;5.15;;;;;;;9.19;79.75;100101.56;5024371;28;20029;-73
2024/03/24 11:03:21;;;;;;;12.23;3.20;;;;;;;9.33;81.04;100097.53;5028858;28;20508;-74
2024/03/24 11:05:51;;;;;;;16.83;4.15;;;;;;;9.24;81.34;100101.09;5027842;28;20049;-74
2024/03/24 11:08:21;;;;;;;14.13;2.97;;;;;;;9.22;81.48;100093.50;5023367;28;20037;-74
2024/03/24 11:11:01;;;;;;;13.70;4.03;;;;;;;9.11;83.38;100104.97;5021482;28;20033;-73
2024/03/24 11:13:35;;;;;;;21.13;4.43;;;;;;;9.03;82.81;100093.84;5024297;28;20029;-73